sensor_id;sensor_type;location;lat;lon;timestamp;pressure;altitude;pressure_sealevel;temperature;humidity
13695;BME280;6919;52.344;14.518;2023-08-17T00:00:23;101257.50;;;20.10;100.00
13695;BME280;6919;52.344;14.518;2023-08-17T00:02:52;101253.28;;;20.08;100.00
13695;BME280;6919;52.344;14.518;2023-08-17T00:05:21;101252.63;;;20.06;100.00
13695;BME280;6919;52.344;14.518;2023-08-17T00:07:50;101245.50;;;20.05;100.00
13695;BME280;6919;52.344;14.518;2023-08-17T00:10:19;101252.22;;;20.09;100.00
13695;BME280;6919;52.344;14.518;2023-08-17T00:12:49;101259.22;;;20.18;100.00
13695;BME280;6919;52.344;14.518;2023-08-17T00:15:18;101255.47;;;20.19;100.00
13695;BME280;6919;52.344;14.518;2023-08-17T00:17:46;101253.91;;;20.10;100.00
13695;BME280;6919;52.344;14.518;2023-08-17T00:20:16;101264.63;;;20.11;100.00
13695;BME280;6919;52.344;14.518;2023-08-17T00:22:45;101258.78;;;20.14;100.00
13695;BME280;6919;52.344;14.518;2023-08-17T00:25:13;101260.38;;;20.09;100.00
13695;BME280;6919;52.344;14.518;2023-08-17T00:27:42;101255.63;;;20.11;100.00
13695;BME280;6919;52.344;14.518;2023-08-17T00:30:13;101256.72;;;20.17;100.00
13695;BME280;6919;52.344;14.518;2023-08-17T00:32:41;101268.00;;;20.13;100.00
13695;BME280;6919;52.344;14.518;2023-08-17T00:35:10;101260.22;;;20.10;100.00
13695;BME280;6919;52.344;14.518;2023-08-17T00:37:38;101255.13;;;20.07;100.00
13695;BME280;6919;52.344;14.518;2023-08-17T00:40:08;101257.44;;;20.04;100.00
13695;BME280;6919;52.344;14.518;2023-08-17T00:42:37;101257.56;;;19.96;100.00
13695;BME280;6919;52.344;14.518;2023-08-17T00:45:07;101255.94;;;20.01;100.00
13695;BME280;6919;52.344;14.518;2023-08-17T00:47:37;101262.00;;;19.97;100.00
13695;BME280;6919;52.344;14.518;2023-08-17T00:50:07;101263.41;;;19.93;100.00
13695;BME280;6919;52.344;14.518;2023-08-17T00:52:36;101264.22;;;19.87;100.00
13695;BME280;6919;52.344;14.518;2023-08-17T00:55:06;101263.97;;;19.82;100.00
13695;BME280;6919;52.344;14.518;2023-08-17T00:57:35;101267.97;;;19.86;100.00
13695;BME280;6919;52.344;14.518;2023-08-17T01:00:07;101263.84;;;19.90;100.00
13695;BME280;6919;52.344;14.518;2023-08-17T01:02:38;101259.78;;;19.86;100.00
13695;BME280;6919;52.344;14.518;2023-08-17T01:05:07;101257.06;;;19.86;100.00
13695;BME280;6919;52.344;14.518;2023-08-17T01:07:36;101248.09;;;19.85;100.00
13695;BME280;6919;52.344;14.518;2023-08-17T01:10:07;101245.28;;;19.79;100.00
13695;BME280;6919;52.344;14.518;2023-08-17T01:12:44;101239.56;;;19.67;100.00
13695;BME280;6919;52.344;14.518;2023-08-17T01:15:19;101229.88;;;19.58;100.00
13695;BME280;6919;52.344;14.518;2023-08-17T01:17:56;101234.06;;;19.61;100.00
13695;BME280;6919;52.344;14.518;2023-08-17T01:20:27;101231.06;;;19.49;100.00
13695;BME280;6919;52.344;14.518;2023-08-17T01:23:02;101227.03;;;19.45;100.00
13695;BME280;6919;52.344;14.518;2023-08-17T01:25:33;101237.09;;;19.45;100.00
13695;BME280;6919;52.344;14.518;2023-08-17T01:28:04;101236.56;;;19.35;100.00
13695;BME280;6919;52.344;14.518;2023-08-17T01:30:42;101226.28;;;19.30;100.00
13695;BME280;6919;52.344;14.518;2023-08-17T01:33:19;101227.13;;;19.31;100.00
13695;BME280;6919;52.344;14.518;2023-08-17T01:36:01;101220.94;;;19.22;100.00
13695;BME280;6919;52.344;14.518;2023-08-17T01:38:35;101233.59;;;19.30;100.00
13695;BME280;6919;52.344;14.518;2023-08-17T01:41:06;101225.84;;;19.27;100.00
13695;BME280;6919;52.344;14.518;2023-08-17T01:43:36;101217.03;;;19.25;100.00
13695;BME280;6919;52.344;14.518;2023-08-17T01:46:04;101209.31;;;19.28;100.00
13695;BME280;6919;52.344;14.518;2023-08-17T01:48:33;101211.13;;;19.21;100.00
13695;BME280;6919;52.344;14.518;2023-08-17T01:51:01;101212.53;;;19.17;100.00
13695;BME280;6919;52.344;14.518;2023-08-17T01:53:29;101199.28;;;19.29;100.00
13695;BME280;6919;52.344;14.518;2023-08-17T01:55:59;101195.94;;;19.27;100.00
13695;BME280;6919;52.344;14.518;2023-08-17T01:58:28;101188.19;;;19.30;100.00
13695;BME280;6919;52.344;14.518;2023-08-17T02:00:56;101172.66;;;19.24;100.00
13695;BME280;6919;52.344;14.518;2023-08-17T02:03:24;101170.22;;;19.29;100.00
13695;BME280;6919;52.344;14.518;2023-08-17T02:05:56;101174.38;;;19.25;100.00
13695;BME280;6919;52.344;14.518;2023-08-17T02:08:25;101180.16;;;19.22;100.00
13695;BME280;6919;52.344;14.518;2023-08-17T02:10:53;101191.63;;;19.18;100.00
13695;BME280;6919;52.344;14.518;2023-08-17T02:13:23;101192.38;;;19.12;100.00
13695;BME280;6919;52.344;14.518;2023-08-17T02:15:54;101200.50;;;19.05;100.00
13695;BME280;6919;52.344;14.518;2023-08-17T02:18:22;101200.81;;;18.96;100.00
13695;BME280;6919;52.344;14.518;2023-08-17T02:20:51;101206.44;;;18.94;100.00
13695;BME280;6919;52.344;14.518;2023-08-17T02:23:19;101206.81;;;18.91;100.00
13695;BME280;6919;52.344;14.518;2023-08-17T02:25:48;101199.38;;;19.00;100.00
13695;BME280;6919;52.344;14.518;2023-08-17T02:28:16;101197.06;;;18.97;100.00
13695;BME280;6919;52.344;14.518;2023-08-17T02:30:46;101205.88;;;18.99;100.00
13695;BME280;6919;52.344;14.518;2023-08-17T02:33:15;101201.53;;;19.04;100.00
13695;BME280;6919;52.344;14.518;2023-08-17T02:35:48;101200.50;;;19.05;100.00
13695;BME280;6919;52.344;14.518;2023-08-17T02:38:17;101192.53;;;19.04;100.00
13695;BME280;6919;52.344;14.518;2023-08-17T02:40:46;101197.44;;;18.94;100.00
13695;BME280;6919;52.344;14.518;2023-08-17T02:43:16;101192.66;;;18.96;100.00
13695;BME280;6919;52.344;14.518;2023-08-17T02:45:46;101188.56;;;19.06;100.00
13695;BME280;6919;52.344;14.518;2023-08-17T02:48:14;101182.03;;;19.01;100.00
13695;BME280;6919;52.344;14.518;2023-08-17T02:50:43;101182.75;;;19.09;100.00
13695;BME280;6919;52.344;14.518;2023-08-17T02:53:11;101180.88;;;19.10;100.00
13695;BME280;6919;52.344;14.518;2023-08-17T02:55:40;101176.53;;;19.15;100.00
13695;BME280;6919;52.344;14.518;2023-08-17T02:58:08;101164.97;;;19.07;100.00
13695;BME280;6919;52.344;14.518;2023-08-17T03:00:37;101165.16;;;19.05;100.00
13695;BME280;6919;52.344;14.518;2023-08-17T03:03:06;101166.00;;;19.06;100.00
13695;BME280;6919;52.344;14.518;2023-08-17T03:05:35;101166.34;;;18.96;100.00
13695;BME280;6919;52.344;14.518;2023-08-17T03:08:05;101172.53;;;18.90;100.00
13695;BME280;6919;52.344;14.518;2023-08-17T03:10:34;101175.06;;;18.92;100.00
13695;BME280;6919;52.344;14.518;2023-08-17T03:13:03;101167.53;;;18.94;100.00
13695;BME280;6919;52.344;14.518;2023-08-17T03:15:31;101160.81;;;18.90;100.00
13695;BME280;6919;52.344;14.518;2023-08-17T03:18:00;101167.53;;;18.94;100.00
13695;BME280;6919;52.344;14.518;2023-08-17T03:20:29;101163.44;;;18.98;100.00
13695;BME280;6919;52.344;14.518;2023-08-17T03:22:58;101163.72;;;18.88;100.00
13695;BME280;6919;52.344;14.518;2023-08-17T03:25:26;101165.81;;;18.86;100.00
13695;BME280;6919;52.344;14.518;2023-08-17T03:27:55;101160.56;;;18.85;100.00
13695;BME280;6919;52.344;14.518;2023-08-17T03:30:23;101161.34;;;18.79;100.00
13695;BME280;6919;52.344;14.518;2023-08-17T03:32:52;101167.16;;;18.76;100.00
13695;BME280;6919;52.344;14.518;2023-08-17T03:35:20;101166.97;;;18.77;100.00
13695;BME280;6919;52.344;14.518;2023-08-17T03:37:50;101166.34;;;18.75;100.00
13695;BME280;6919;52.344;14.518;2023-08-17T03:40:19;101163.28;;;18.85;100.00
13695;BME280;6919;52.344;14.518;2023-08-17T03:42:47;101164.72;;;18.81;100.00
13695;BME280;6919;52.344;14.518;2023-08-17T03:45:16;101147.81;;;18.85;100.00
13695;BME280;6919;52.344;14.518;2023-08-17T03:47:44;101146.59;;;18.88;100.00
13695;BME280;6919;52.344;14.518;2023-08-17T03:50:13;101144.00;;;18.80;100.00
13695;BME280;6919;52.344;14.518;2023-08-17T03:52:41;101150.41;;;18.72;100.00
13695;BME280;6919;52.344;14.518;2023-08-17T03:55:11;101171.28;;;18.72;100.00
13695;BME280;6919;52.344;14.518;2023-08-17T03:57:39;101168.31;;;18.67;100.00
13695;BME280;6919;52.344;14.518;2023-08-17T04:00:09;101173.81;;;18.73;100.00
13695;BME280;6919;52.344;14.518;2023-08-17T04:02:38;101179.19;;;18.67;100.00
13695;BME280;6919;52.344;14.518;2023-08-17T04:05:07;101178.91;;;18.62;100.00
13695;BME280;6919;52.344;14.518;2023-08-17T04:07:37;101183.06;;;18.58;100.00
13695;BME280;6919;52.344;14.518;2023-08-17T04:10:07;101186.81;;;18.57;100.00
13695;BME280;6919;52.344;14.518;2023-08-17T04:12:37;101192.81;;;18.52;100.00
13695;BME280;6919;52.344;14.518;2023-08-17T04:15:06;101190.19;;;18.80;100.00
13695;BME280;6919;52.344;14.518;2023-08-17T04:17:34;101194.56;;;18.60;100.00
13695;BME280;6919;52.344;14.518;2023-08-17T04:20:03;101194.56;;;18.60;100.00
13695;BME280;6919;52.344;14.518;2023-08-17T04:22:32;101208.53;;;18.57;100.00
13695;BME280;6919;52.344;14.518;2023-08-17T04:25:01;101208.16;;;18.60;100.00
13695;BME280;6919;52.344;14.518;2023-08-17T04:27:29;101223.28;;;18.69;100.00
13695;BME280;6919;52.344;14.518;2023-08-17T04:30:00;101210.75;;;18.68;100.00
13695;BME280;6919;52.344;14.518;2023-08-17T04:32:29;101212.44;;;18.69;100.00
13695;BME280;6919;52.344;14.518;2023-08-17T04:34:57;101209.88;;;18.82;100.00
13695;BME280;6919;52.344;14.518;2023-08-17T04:37:25;101209.44;;;18.78;100.00
13695;BME280;6919;52.344;14.518;2023-08-17T04:39:54;101209.53;;;18.91;100.00
13695;BME280;6919;52.344;14.518;2023-08-17T04:42:22;101206.00;;;18.91;100.00
13695;BME280;6919;52.344;14.518;2023-08-17T04:44:51;101208.44;;;18.86;100.00
13695;BME280;6919;52.344;14.518;2023-08-17T04:47:21;101205.34;;;18.89;100.00
13695;BME280;6919;52.344;14.518;2023-08-17T04:49:50;101204.69;;;19.08;100.00
13695;BME280;6919;52.344;14.518;2023-08-17T04:52:18;101203.41;;;19.04;100.00
13695;BME280;6919;52.344;14.518;2023-08-17T04:54:46;101201.44;;;19.19;100.00
13695;BME280;6919;52.344;14.518;2023-08-17T04:57:14;101193.44;;;19.32;100.00
13695;BME280;6919;52.344;14.518;2023-08-17T04:59:43;101198.34;;;19.22;100.00
13695;BME280;6919;52.344;14.518;2023-08-17T05:02:11;101194.13;;;19.19;100.00
13695;BME280;6919;52.344;14.518;2023-08-17T05:04:40;101195.44;;;19.23;100.00
13695;BME280;6919;52.344;14.518;2023-08-17T05:07:09;101180.81;;;19.24;100.00
13695;BME280;6919;52.344;14.518;2023-08-17T05:09:37;101171.09;;;19.15;100.00
13695;BME280;6919;52.344;14.518;2023-08-17T05:12:07;101174.72;;;19.22;100.00
13695;BME280;6919;52.344;14.518;2023-08-17T05:14:35;101165.19;;;19.33;100.00
13695;BME280;6919;52.344;14.518;2023-08-17T05:17:03;101168.34;;;19.30;100.00
13695;BME280;6919;52.344;14.518;2023-08-17T05:19:32;101159.38;;;19.36;100.00
13695;BME280;6919;52.344;14.518;2023-08-17T05:22:01;101152.03;;;19.30;100.00
13695;BME280;6919;52.344;14.518;2023-08-17T05:24:30;101155.38;;;19.32;100.00
13695;BME280;6919;52.344;14.518;2023-08-17T05:26:58;101154.19;;;19.41;100.00
13695;BME280;6919;52.344;14.518;2023-08-17T05:29:26;101153.66;;;19.52;100.00
13695;BME280;6919;52.344;14.518;2023-08-17T05:31:55;101149.25;;;19.51;100.00
13695;BME280;6919;52.344;14.518;2023-08-17T05:34:23;101142.59;;;19.60;100.00
13695;BME280;6919;52.344;14.518;2023-08-17T05:36:52;101147.41;;;19.58;100.00
13695;BME280;6919;52.344;14.518;2023-08-17T05:39:21;101152.94;;;19.71;100.00
13695;BME280;6919;52.344;14.518;2023-08-17T05:41:50;101152.41;;;19.88;100.00
13695;BME280;6919;52.344;14.518;2023-08-17T05:44:19;101144.47;;;19.87;100.00
13695;BME280;6919;52.344;14.518;2023-08-17T05:46:47;101149.53;;;20.03;100.00
13695;BME280;6919;52.344;14.518;2023-08-17T05:49:15;101151.59;;;19.94;100.00
13695;BME280;6919;52.344;14.518;2023-08-17T05:51:43;101160.19;;;19.91;100.00
13695;BME280;6919;52.344;14.518;2023-08-17T05:54:12;101178.63;;;19.96;100.00
13695;BME280;6919;52.344;14.518;2023-08-17T05:56:42;101182.16;;;20.24;100.00
13695;BME280;6919;52.344;14.518;2023-08-17T05:59:13;101175.63;;;20.18;100.00
13695;BME280;6919;52.344;14.518;2023-08-17T06:01:42;101190.31;;;20.24;100.00
13695;BME280;6919;52.344;14.518;2023-08-17T06:04:10;101191.59;;;20.28;100.00
13695;BME280;6919;52.344;14.518;2023-08-17T06:06:38;101189.41;;;20.51;100.00
13695;BME280;6919;52.344;14.518;2023-08-17T06:09:06;101197.56;;;20.51;100.00
13695;BME280;6919;52.344;14.518;2023-08-17T06:11:35;101194.47;;;20.67;100.00
13695;BME280;6919;52.344;14.518;2023-08-17T06:14:06;101182.13;;;20.71;100.00
13695;BME280;6919;52.344;14.518;2023-08-17T06:16:35;101185.50;;;20.86;100.00
13695;BME280;6919;52.344;14.518;2023-08-17T06:19:04;101179.72;;;21.15;100.00
13695;BME280;6919;52.344;14.518;2023-08-17T06:21:32;101183.72;;;21.32;100.00
13695;BME280;6919;52.344;14.518;2023-08-17T06:24:00;101182.88;;;21.25;100.00
13695;BME280;6919;52.344;14.518;2023-08-17T06:26:29;101187.25;;;21.00;100.00
13695;BME280;6919;52.344;14.518;2023-08-17T06:28:57;101189.25;;;20.85;100.00
13695;BME280;6919;52.344;14.518;2023-08-17T06:31:29;101192.44;;;20.89;100.00
13695;BME280;6919;52.344;14.518;2023-08-17T06:33:57;101190.97;;;20.86;100.00
13695;BME280;6919;52.344;14.518;2023-08-17T06:36:29;101207.63;;;21.24;100.00
13695;BME280;6919;52.344;14.518;2023-08-17T06:38:57;101201.75;;;21.53;100.00
13695;BME280;6919;52.344;14.518;2023-08-17T06:41:26;101199.00;;;21.66;100.00
13695;BME280;6919;52.344;14.518;2023-08-17T06:43:54;101207.19;;;21.59;100.00
13695;BME280;6919;52.344;14.518;2023-08-17T06:46:22;101211.63;;;21.60;100.00
13695;BME280;6919;52.344;14.518;2023-08-17T06:48:52;101207.41;;;21.25;100.00
13695;BME280;6919;52.344;14.518;2023-08-17T06:51:21;101209.72;;;21.28;100.00
13695;BME280;6919;52.344;14.518;2023-08-17T06:53:49;101208.88;;;21.67;100.00
13695;BME280;6919;52.344;14.518;2023-08-17T06:56:17;101197.34;;;21.84;100.00
13695;BME280;6919;52.344;14.518;2023-08-17T06:58:46;101195.16;;;22.12;100.00
13695;BME280;6919;52.344;14.518;2023-08-17T07:01:14;101192.59;;;22.30;100.00
13695;BME280;6919;52.344;14.518;2023-08-17T07:03:44;101192.84;;;22.73;100.00
13695;BME280;6919;52.344;14.518;2023-08-17T07:06:13;101195.75;;;23.40;100.00
13695;BME280;6919;52.344;14.518;2023-08-17T07:08:42;101204.78;;;23.90;100.00
13695;BME280;6919;52.344;14.518;2023-08-17T07:11:10;101204.84;;;24.26;100.00
13695;BME280;6919;52.344;14.518;2023-08-17T07:13:38;101217.69;;;24.43;100.00
13695;BME280;6919;52.344;14.518;2023-08-17T07:16:07;101208.56;;;24.49;100.00
13695;BME280;6919;52.344;14.518;2023-08-17T07:18:35;101218.06;;;24.83;100.00
13695;BME280;6919;52.344;14.518;2023-08-17T07:21:04;101229.56;;;25.32;100.00
13695;BME280;6919;52.344;14.518;2023-08-17T07:23:33;101230.06;;;25.11;100.00
13695;BME280;6919;52.344;14.518;2023-08-17T07:26:02;101227.91;;;25.31;100.00
13695;BME280;6919;52.344;14.518;2023-08-17T07:28:30;101230.13;;;25.23;100.00
13695;BME280;6919;52.344;14.518;2023-08-17T07:30:58;101237.50;;;25.11;100.00
13695;BME280;6919;52.344;14.518;2023-08-17T07:33:27;101232.34;;;24.37;100.00
13695;BME280;6919;52.344;14.518;2023-08-17T07:35:55;101232.16;;;24.14;100.00
13695;BME280;6919;52.344;14.518;2023-08-17T07:38:25;101236.88;;;24.43;100.00
13695;BME280;6919;52.344;14.518;2023-08-17T07:40:55;101231.63;;;24.24;100.00
13695;BME280;6919;52.344;14.518;2023-08-17T07:43:23;101224.63;;;24.46;100.00
13695;BME280;6919;52.344;14.518;2023-08-17T07:45:58;101219.13;;;24.10;100.00
13695;BME280;6919;52.344;14.518;2023-08-17T07:48:26;101225.38;;;24.17;100.00
13695;BME280;6919;52.344;14.518;2023-08-17T07:50:56;101220.59;;;24.48;100.00
13695;BME280;6919;52.344;14.518;2023-08-17T07:53:25;101223.03;;;24.38;100.00
13695;BME280;6919;52.344;14.518;2023-08-17T07:55:54;101220.63;;;24.60;100.00
13695;BME280;6919;52.344;14.518;2023-08-17T07:58:24;101216.78;;;24.49;100.00
13695;BME280;6919;52.344;14.518;2023-08-17T08:00:53;101219.13;;;24.46;100.00
13695;BME280;6919;52.344;14.518;2023-08-17T08:03:25;101219.31;;;24.15;100.00
13695;BME280;6919;52.344;14.518;2023-08-17T08:05:53;101219.69;;;24.18;100.00
13695;BME280;6919;52.344;14.518;2023-08-17T08:08:21;101216.69;;;24.02;100.00
13695;BME280;6919;52.344;14.518;2023-08-17T08:10:50;101220.50;;;24.01;100.00
13695;BME280;6919;52.344;14.518;2023-08-17T08:13:19;101225.47;;;24.10;100.00
13695;BME280;6919;52.344;14.518;2023-08-17T08:15:48;101223.56;;;24.29;100.00
13695;BME280;6919;52.344;14.518;2023-08-17T08:18:16;101219.13;;;24.46;100.00
13695;BME280;6919;52.344;14.518;2023-08-17T08:20:44;101224.72;;;24.21;100.00
13695;BME280;6919;52.344;14.518;2023-08-17T08:23:12;101229.19;;;24.34;100.00
13695;BME280;6919;52.344;14.518;2023-08-17T08:25:41;101244.13;;;24.20;100.00
13695;BME280;6919;52.344;14.518;2023-08-17T08:28:10;101245.47;;;23.86;100.00
13695;BME280;6919;52.344;14.518;2023-08-17T08:30:39;101246.25;;;24.54;100.00
13695;BME280;6919;52.344;14.518;2023-08-17T08:33:08;101246.28;;;24.36;100.00
13695;BME280;6919;52.344;14.518;2023-08-17T08:35:36;101233.00;;;24.51;100.00
13695;BME280;6919;52.344;14.518;2023-08-17T08:38:04;101252.66;;;24.30;100.00
13695;BME280;6919;52.344;14.518;2023-08-17T08:40:37;101250.69;;;23.94;100.00
13695;BME280;6919;52.344;14.518;2023-08-17T08:43:05;101255.84;;;24.09;100.00
13695;BME280;6919;52.344;14.518;2023-08-17T08:45:41;101249.44;;;23.97;100.00
13695;BME280;6919;52.344;14.518;2023-08-17T08:48:12;101251.13;;;24.34;100.00
13695;BME280;6919;52.344;14.518;2023-08-17T08:50:42;101252.56;;;24.36;100.00
13695;BME280;6919;52.344;14.518;2023-08-17T08:53:14;101255.84;;;24.09;100.00
13695;BME280;6919;52.344;14.518;2023-08-17T08:55:51;101260.47;;;24.08;100.00
13695;BME280;6919;52.344;14.518;2023-08-17T08:58:21;101261.25;;;24.15;100.00
13695;BME280;6919;52.344;14.518;2023-08-17T09:00:52;101253.97;;;24.45;100.00
13695;BME280;6919;52.344;14.518;2023-08-17T09:03:22;101247.25;;;24.59;100.00
13695;BME280;6919;52.344;14.518;2023-08-17T09:05:52;101235.16;;;24.96;100.00
13695;BME280;6919;52.344;14.518;2023-08-17T09:08:24;101242.34;;;24.97;100.00
13695;BME280;6919;52.344;14.518;2023-08-17T09:10:53;101241.31;;;25.10;100.00
13695;BME280;6919;52.344;14.518;2023-08-17T09:13:22;101228.50;;;24.74;100.00
13695;BME280;6919;52.344;14.518;2023-08-17T09:15:51;101227.91;;;25.31;100.00
13695;BME280;6919;52.344;14.518;2023-08-17T09:18:19;101226.28;;;24.83;100.00
13695;BME280;6919;52.344;14.518;2023-08-17T09:20:51;101216.97;;;25.55;100.00
13695;BME280;6919;52.344;14.518;2023-08-17T09:23:21;101220.97;;;26.05;100.00
13695;BME280;6919;52.344;14.518;2023-08-17T09:25:50;101224.63;;;26.33;100.00
13695;BME280;6919;52.344;14.518;2023-08-17T09:28:24;101222.00;;;26.38;100.00
13695;BME280;6919;52.344;14.518;2023-08-17T09:30:57;101220.44;;;26.42;100.00
13695;BME280;6919;52.344;14.518;2023-08-17T09:33:27;101207.31;;;26.21;100.00
13695;BME280;6919;52.344;14.518;2023-08-17T09:35:57;101195.59;;;26.14;100.00
13695;BME280;6919;52.344;14.518;2023-08-17T09:38:27;101195.69;;;26.31;100.00
13695;BME280;6919;52.344;14.518;2023-08-17T09:40:57;101185.22;;;26.56;100.00
13695;BME280;6919;52.344;14.518;2023-08-17T09:43:26;101179.94;;;26.54;100.00
13695;BME280;6919;52.344;14.518;2023-08-17T09:45:57;101166.53;;;26.30;100.00
13695;BME280;6919;52.344;14.518;2023-08-17T09:48:26;101171.78;;;26.31;100.00
13695;BME280;6919;52.344;14.518;2023-08-17T09:50:59;101167.31;;;26.42;100.00
13695;BME280;6919;52.344;14.518;2023-08-17T09:53:29;101161.78;;;26.65;100.00
13695;BME280;6919;52.344;14.518;2023-08-17T09:55:59;101162.97;;;26.85;100.00
13695;BME280;6919;52.344;14.518;2023-08-17T09:58:28;101158.97;;;26.76;100.00
13695;BME280;6919;52.344;14.518;2023-08-17T10:01:03;101167.38;;;26.70;100.00
13695;BME280;6919;52.344;14.518;2023-08-17T10:03:34;101151.41;;;26.83;100.00
13695;BME280;6919;52.344;14.518;2023-08-17T10:06:05;101156.69;;;27.01;100.00
13695;BME280;6919;52.344;14.518;2023-08-17T10:08:42;101156.84;;;27.11;100.00
13695;BME280;6919;52.344;14.518;2023-08-17T10:11:16;101150.22;;;27.40;100.00
13695;BME280;6919;52.344;14.518;2023-08-17T10:13:52;101146.03;;;27.71;100.00
13695;BME280;6919;52.344;14.518;2023-08-17T10:16:29;101148.94;;;27.81;100.00
13695;BME280;6919;52.344;14.518;2023-08-17T10:19:10;101146.94;;;28.15;100.00
13695;BME280;6919;52.344;14.518;2023-08-17T10:21:48;101146.47;;;28.01;100.00
13695;BME280;6919;52.344;14.518;2023-08-17T10:24:19;101148.91;;;28.19;100.00
13695;BME280;6919;52.344;14.518;2023-08-17T10:26:49;101136.22;;;27.80;100.00
13695;BME280;6919;52.344;14.518;2023-08-17T10:29:23;101131.69;;;27.52;100.00
13695;BME280;6919;52.344;14.518;2023-08-17T10:31:53;101133.44;;;27.42;100.00
13695;BME280;6919;52.344;14.518;2023-08-17T10:34:22;101119.97;;;27.62;100.00
13695;BME280;6919;52.344;14.518;2023-08-17T10:36:51;101123.38;;;27.85;100.00
13695;BME280;6919;52.344;14.518;2023-08-17T10:39:22;101127.03;;;27.74;100.00
13695;BME280;6919;52.344;14.518;2023-08-17T10:41:57;101119.72;;;27.63;100.00
13695;BME280;6919;52.344;14.518;2023-08-17T10:44:47;101127.50;;;27.50;100.00
13695;BME280;6919;52.344;14.518;2023-08-17T10:47:22;101127.28;;;27.35;100.00
13695;BME280;6919;52.344;14.518;2023-08-17T10:49:52;101131.59;;;27.47;100.00
13695;BME280;6919;52.344;14.518;2023-08-17T10:52:29;101129.00;;;27.41;100.00
13695;BME280;6919;52.344;14.518;2023-08-17T10:55:05;101136.59;;;27.83;100.00
13695;BME280;6919;52.344;14.518;2023-08-17T10:57:36;101126.31;;;27.62;100.00
13695;BME280;6919;52.344;14.518;2023-08-17T11:00:16;101122.81;;;27.83;100.00
13695;BME280;6919;52.344;14.518;2023-08-17T11:02:57;101125.13;;;27.91;100.00
13695;BME280;6919;52.344;14.518;2023-08-17T11:05:44;101116.28;;;27.89;100.00
13695;BME280;6919;52.344;14.518;2023-08-17T11:08:22;101116.97;;;28.01;100.00
13695;BME280;6919;52.344;14.518;2023-08-17T11:11:03;101122.09;;;27.93;100.00
13695;BME280;6919;52.344;14.518;2023-08-17T11:13:34;101113.81;;;27.93;100.00
13695;BME280;6919;52.344;14.518;2023-08-17T11:16:05;101112.63;;;28.05;100.00
13695;BME280;6919;52.344;14.518;2023-08-17T11:18:35;101115.50;;;28.16;100.00
13695;BME280;6919;52.344;14.518;2023-08-17T11:21:06;101108.56;;;28.35;100.00
13695;BME280;6919;52.344;14.518;2023-08-17T11:23:36;101113.91;;;28.20;100.00
13695;BME280;6919;52.344;14.518;2023-08-17T11:26:05;101107.81;;;28.18;100.00
13695;BME280;6919;52.344;14.518;2023-08-17T11:28:34;101106.16;;;27.95;100.00
13695;BME280;6919;52.344;14.518;2023-08-17T11:31:10;101107.41;;;27.87;100.00
13695;BME280;6919;52.344;14.518;2023-08-17T11:33:41;101105.06;;;28.18;100.00
13695;BME280;6919;52.344;14.518;2023-08-17T11:36:09;101104.97;;;28.34;100.00
13695;BME280;6919;52.344;14.518;2023-08-17T11:38:41;101101.06;;;28.30;100.00
13695;BME280;6919;52.344;14.518;2023-08-17T11:41:10;101112.44;;;27.90;100.00
13695;BME280;6919;52.344;14.518;2023-08-17T11:43:43;101111.28;;;28.30;100.00
13695;BME280;6919;52.344;14.518;2023-08-17T11:46:12;101110.00;;;28.16;100.00
13695;BME280;6919;52.344;14.518;2023-08-17T11:48:42;101106.53;;;27.65;100.00
13695;BME280;6919;52.344;14.518;2023-08-17T11:51:10;101110.50;;;28.13;100.00
13695;BME280;6919;52.344;14.518;2023-08-17T11:53:39;101099.31;;;28.46;100.00
13695;BME280;6919;52.344;14.518;2023-08-17T11:56:08;101103.38;;;28.38;100.00
13695;BME280;6919;52.344;14.518;2023-08-17T11:58:41;101092.75;;;28.03;100.00
13695;BME280;6919;52.344;14.518;2023-08-17T12:01:12;101088.75;;;27.94;100.00
13695;BME280;6919;52.344;14.518;2023-08-17T12:03:45;101091.44;;;27.51;100.00
13695;BME280;6919;52.344;14.518;2023-08-17T12:06:15;101094.47;;;27.33;100.00
13695;BME280;6919;52.344;14.518;2023-08-17T12:08:45;101086.66;;;27.63;100.00
13695;BME280;6919;52.344;14.518;2023-08-17T12:11:17;101088.25;;;27.59;100.00
13695;BME280;6919;52.344;14.518;2023-08-17T12:13:49;101088.13;;;27.33;100.00
13695;BME280;6919;52.344;14.518;2023-08-17T12:16:20;101086.34;;;27.81;100.00
13695;BME280;6919;52.344;14.518;2023-08-17T12:18:50;101087.25;;;28.03;100.00
13695;BME280;6919;52.344;14.518;2023-08-17T12:21:20;101097.34;;;27.98;100.00
13695;BME280;6919;52.344;14.518;2023-08-17T12:23:49;101090.59;;;28.32;100.00
13695;BME280;6919;52.344;14.518;2023-08-17T12:26:19;101099.41;;;28.51;100.00
13695;BME280;6919;52.344;14.518;2023-08-17T12:28:47;101092.34;;;28.17;100.00
13695;BME280;6919;52.344;14.518;2023-08-17T12:31:21;101095.41;;;28.42;100.00
13695;BME280;6919;52.344;14.518;2023-08-17T12:33:53;101089.06;;;28.20;100.00
13695;BME280;6919;52.344;14.518;2023-08-17T12:36:21;101081.47;;;28.32;100.00
13695;BME280;6919;52.344;14.518;2023-08-17T12:38:49;101083.97;;;28.33;100.00
13695;BME280;6919;52.344;14.518;2023-08-17T12:41:18;101082.94;;;28.61;100.00
13695;BME280;6919;52.344;14.518;2023-08-17T12:43:46;101084.13;;;28.43;100.00
13695;BME280;6919;52.344;14.518;2023-08-17T12:46:15;101071.63;;;28.36;100.00
13695;BME280;6919;52.344;14.518;2023-08-17T12:48:43;101070.25;;;28.38;100.00
13695;BME280;6919;52.344;14.518;2023-08-17T12:51:13;101075.44;;;28.35;100.00
13695;BME280;6919;52.344;14.518;2023-08-17T12:53:41;101066.03;;;28.31;100.00